sensor_id;sensor_type;location;lat;lon;timestamp;temperature;humidity
6496;DHT22;3281;47.658;9.166;2023-04-22T00:01:27;10.50;1.00
6496;DHT22;3281;47.658;9.166;2023-04-22T00:03:54;10.40;1.00
6496;DHT22;3281;47.658;9.166;2023-04-22T00:06:21;10.30;1.00
6496;DHT22;3281;47.658;9.166;2023-04-22T00:08:47;10.20;1.00
6496;DHT22;3281;47.658;9.166;2023-04-22T00:11:16;10.30;1.00
6496;DHT22;3281;47.658;9.166;2023-04-22T00:13:42;10.40;1.00
6496;DHT22;3281;47.658;9.166;2023-04-22T00:16:09;10.30;1.00
6496;DHT22;3281;47.658;9.166;2023-04-22T00:18:36;10.20;1.00
6496;DHT22;3281;47.658;9.166;2023-04-22T00:21:03;10.30;1.00
6496;DHT22;3281;47.658;9.166;2023-04-22T00:23:30;10.40;1.00
6496;DHT22;3281;47.658;9.166;2023-04-22T00:25:57;10.30;1.00
6496;DHT22;3281;47.658;9.166;2023-04-22T00:28:25;10.20;1.00
6496;DHT22;3281;47.658;9.166;2023-04-22T00:30:51;10.20;1.00
6496;DHT22;3281;47.658;9.166;2023-04-22T00:33:18;10.30;1.00
6496;DHT22;3281;47.658;9.166;2023-04-22T00:35:45;10.20;1.00
6496;DHT22;3281;47.658;9.166;2023-04-22T00:38:12;10.10;1.00
6496;DHT22;3281;47.658;9.166;2023-04-22T00:40:38;10.20;1.00
6496;DHT22;3281;47.658;9.166;2023-04-22T00:43:05;10.10;1.00
6496;DHT22;3281;47.658;9.166;2023-04-22T00:45:35;10.10;1.00
6496;DHT22;3281;47.658;9.166;2023-04-22T00:48:03;10.00;1.00
6496;DHT22;3281;47.658;9.166;2023-04-22T00:50:30;10.00;1.00
6496;DHT22;3281;47.658;9.166;2023-04-22T00:52:56;10.00;1.00
6496;DHT22;3281;47.658;9.166;2023-04-22T00:55:23;9.90;1.00
6496;DHT22;3281;47.658;9.166;2023-04-22T00:57:51;9.80;1.00
6496;DHT22;3281;47.658;9.166;2023-04-22T01:00:20;9.80;1.00
6496;DHT22;3281;47.658;9.166;2023-04-22T01:02:53;9.70;1.00
6496;DHT22;3281;47.658;9.166;2023-04-22T01:05:19;9.70;1.00
6496;DHT22;3281;47.658;9.166;2023-04-22T01:07:46;9.60;1.00
6496;DHT22;3281;47.658;9.166;2023-04-22T01:10:13;9.60;1.00
6496;DHT22;3281;47.658;9.166;2023-04-22T01:12:39;9.70;1.00
6496;DHT22;3281;47.658;9.166;2023-04-22T01:15:07;9.70;1.00
6496;DHT22;3281;47.658;9.166;2023-04-22T01:17:34;9.70;1.00
6496;DHT22;3281;47.658;9.166;2023-04-22T01:20:02;9.70;1.00
6496;DHT22;3281;47.658;9.166;2023-04-22T01:22:33;9.60;1.00
6496;DHT22;3281;47.658;9.166;2023-04-22T01:25:03;9.50;1.00
6496;DHT22;3281;47.658;9.166;2023-04-22T01:27:29;9.60;1.00
6496;DHT22;3281;47.658;9.166;2023-04-22T01:29:56;9.60;1.00
6496;DHT22;3281;47.658;9.166;2023-04-22T01:32:23;9.60;1.00
6496;DHT22;3281;47.658;9.166;2023-04-22T01:34:50;9.60;1.00
6496;DHT22;3281;47.658;9.166;2023-04-22T01:37:17;9.20;1.00
6496;DHT22;3281;47.658;9.166;2023-04-22T01:39:44;9.10;1.00
6496;DHT22;3281;47.658;9.166;2023-04-22T01:42:12;9.10;1.00
6496;DHT22;3281;47.658;9.166;2023-04-22T01:44:39;9.20;1.00
6496;DHT22;3281;47.658;9.166;2023-04-22T01:47:06;9.30;1.00
6496;DHT22;3281;47.658;9.166;2023-04-22T01:49:33;9.20;1.00
6496;DHT22;3281;47.658;9.166;2023-04-22T01:51:59;9.30;1.00
6496;DHT22;3281;47.658;9.166;2023-04-22T01:54:26;9.40;1.00
6496;DHT22;3281;47.658;9.166;2023-04-22T01:56:53;9.40;1.00
6496;DHT22;3281;47.658;9.166;2023-04-22T01:59:24;9.50;1.00
6496;DHT22;3281;47.658;9.166;2023-04-22T02:01:50;9.50;1.00
6496;DHT22;3281;47.658;9.166;2023-04-22T02:04:17;9.20;1.00
6496;DHT22;3281;47.658;9.166;2023-04-22T02:06:44;9.10;1.00
6496;DHT22;3281;47.658;9.166;2023-04-22T02:09:10;9.20;1.00
6496;DHT22;3281;47.658;9.166;2023-04-22T02:11:37;9.30;1.00
6496;DHT22;3281;47.658;9.166;2023-04-22T02:14:04;9.20;1.00
6496;DHT22;3281;47.658;9.166;2023-04-22T02:16:32;9.10;1.00
6496;DHT22;3281;47.658;9.166;2023-04-22T02:18:59;9.10;1.00
6496;DHT22;3281;47.658;9.166;2023-04-22T02:21:27;9.10;1.00
6496;DHT22;3281;47.658;9.166;2023-04-22T02:23:54;9.10;1.00
6496;DHT22;3281;47.658;9.166;2023-04-22T02:26:20;9.10;1.00
6496;DHT22;3281;47.658;9.166;2023-04-22T02:28:48;9.00;1.00
6496;DHT22;3281;47.658;9.166;2023-04-22T02:31:14;9.00;1.00
6496;DHT22;3281;47.658;9.166;2023-04-22T02:33:42;9.00;1.00
6496;DHT22;3281;47.658;9.166;2023-04-22T02:36:09;8.90;1.00
6496;DHT22;3281;47.658;9.166;2023-04-22T02:38:37;8.80;1.00
6496;DHT22;3281;47.658;9.166;2023-04-22T02:41:04;8.60;1.00
6496;DHT22;3281;47.658;9.166;2023-04-22T02:43:31;8.70;1.00
6496;DHT22;3281;47.658;9.166;2023-04-22T02:45:57;8.70;1.00
6496;DHT22;3281;47.658;9.166;2023-04-22T02:48:24;8.70;1.00
6496;DHT22;3281;47.658;9.166;2023-04-22T02:50:52;8.70;1.00
6496;DHT22;3281;47.658;9.166;2023-04-22T02:53:18;8.90;1.00
6496;DHT22;3281;47.658;9.166;2023-04-22T02:55:45;9.10;1.00
6496;DHT22;3281;47.658;9.166;2023-04-22T02:58:12;9.00;1.00
6496;DHT22;3281;47.658;9.166;2023-04-22T03:00:38;9.10;1.00
6496;DHT22;3281;47.658;9.166;2023-04-22T03:03:05;9.00;1.00
6496;DHT22;3281;47.658;9.166;2023-04-22T03:05:32;9.00;1.00
6496;DHT22;3281;47.658;9.166;2023-04-22T03:08:00;9.10;1.00
6496;DHT22;3281;47.658;9.166;2023-04-22T03:10:26;9.20;1.00
6496;DHT22;3281;47.658;9.166;2023-04-22T03:12:53;9.10;1.00
6496;DHT22;3281;47.658;9.166;2023-04-22T03:15:20;9.00;1.00
6496;DHT22;3281;47.658;9.166;2023-04-22T03:17:47;8.80;1.00
6496;DHT22;3281;47.658;9.166;2023-04-22T03:20:13;8.80;1.00
6496;DHT22;3281;47.658;9.166;2023-04-22T03:22:40;8.70;1.00
6496;DHT22;3281;47.658;9.166;2023-04-22T03:25:09;8.70;1.00
6496;DHT22;3281;47.658;9.166;2023-04-22T03:27:36;8.70;1.00
6496;DHT22;3281;47.658;9.166;2023-04-22T03:30:03;8.40;1.00
6496;DHT22;3281;47.658;9.166;2023-04-22T03:32:30;8.50;1.00
6496;DHT22;3281;47.658;9.166;2023-04-22T03:34:57;8.40;1.00
6496;DHT22;3281;47.658;9.166;2023-04-22T03:37:24;8.30;1.00
6496;DHT22;3281;47.658;9.166;2023-04-22T03:39:51;8.20;1.00
6496;DHT22;3281;47.658;9.166;2023-04-22T03:42:19;8.20;1.00
6496;DHT22;3281;47.658;9.166;2023-04-22T03:44:45;8.20;1.00
6496;DHT22;3281;47.658;9.166;2023-04-22T03:47:12;8.30;1.00
6496;DHT22;3281;47.658;9.166;2023-04-22T03:49:39;8.50;1.00
6496;DHT22;3281;47.658;9.166;2023-04-22T03:52:05;8.50;1.00
6496;DHT22;3281;47.658;9.166;2023-04-22T03:54:32;8.50;1.00
6496;DHT22;3281;47.658;9.166;2023-04-22T03:56:59;8.40;1.00
6496;DHT22;3281;47.658;9.166;2023-04-22T03:59:27;8.40;1.00
6496;DHT22;3281;47.658;9.166;2023-04-22T04:01:54;8.40;1.00
6496;DHT22;3281;47.658;9.166;2023-04-22T04:04:20;8.30;1.00
6496;DHT22;3281;47.658;9.166;2023-04-22T04:06:48;8.30;1.00
6496;DHT22;3281;47.658;9.166;2023-04-22T04:09:14;8.10;1.00
6496;DHT22;3281;47.658;9.166;2023-04-22T04:11:41;8.10;1.00
6496;DHT22;3281;47.658;9.166;2023-04-22T04:14:08;8.10;1.00
6496;DHT22;3281;47.658;9.166;2023-04-22T04:16:36;8.10;1.00
6496;DHT22;3281;47.658;9.166;2023-04-22T04:19:02;8.10;1.00
6496;DHT22;3281;47.658;9.166;2023-04-22T04:21:29;8.10;1.00
6496;DHT22;3281;47.658;9.166;2023-04-22T04:23:57;8.00;1.00
6496;DHT22;3281;47.658;9.166;2023-04-22T04:26:24;8.10;1.00
6496;DHT22;3281;47.658;9.166;2023-04-22T04:28:52;8.20;1.00
6496;DHT22;3281;47.658;9.166;2023-04-22T04:31:20;8.20;1.00
6496;DHT22;3281;47.658;9.166;2023-04-22T04:33:50;8.00;1.00
6496;DHT22;3281;47.658;9.166;2023-04-22T04:36:17;7.80;1.00
6496;DHT22;3281;47.658;9.166;2023-04-22T04:38:44;7.80;1.00
6496;DHT22;3281;47.658;9.166;2023-04-22T04:41:11;7.80;1.00
6496;DHT22;3281;47.658;9.166;2023-04-22T04:43:38;7.90;1.00
6496;DHT22;3281;47.658;9.166;2023-04-22T04:46:05;8.00;1.00
6496;DHT22;3281;47.658;9.166;2023-04-22T04:48:32;7.90;1.00
6496;DHT22;3281;47.658;9.166;2023-04-22T04:51:01;8.00;1.00
6496;DHT22;3281;47.658;9.166;2023-04-22T04:53:28;8.00;1.00
6496;DHT22;3281;47.658;9.166;2023-04-22T04:55:55;8.10;1.00
6496;DHT22;3281;47.658;9.166;2023-04-22T04:58:22;8.10;1.00
6496;DHT22;3281;47.658;9.166;2023-04-22T05:00:48;8.10;1.00
6496;DHT22;3281;47.658;9.166;2023-04-22T05:03:15;8.20;1.00
6496;DHT22;3281;47.658;9.166;2023-04-22T05:05:42;8.30;1.00
6496;DHT22;3281;47.658;9.166;2023-04-22T05:08:12;8.30;1.00
6496;DHT22;3281;47.658;9.166;2023-04-22T05:10:38;8.30;1.00
6496;DHT22;3281;47.658;9.166;2023-04-22T05:13:06;8.30;1.00
6496;DHT22;3281;47.658;9.166;2023-04-22T05:15:33;8.40;1.00
6496;DHT22;3281;47.658;9.166;2023-04-22T05:18:00;8.50;1.00
6496;DHT22;3281;47.658;9.166;2023-04-22T05:20:27;8.60;1.00
6496;DHT22;3281;47.658;9.166;2023-04-22T05:22:53;8.70;1.00
6496;DHT22;3281;47.658;9.166;2023-04-22T05:25:21;8.70;1.00
6496;DHT22;3281;47.658;9.166;2023-04-22T05:27:48;8.90;1.00
6496;DHT22;3281;47.658;9.166;2023-04-22T05:30:15;8.90;1.00
6496;DHT22;3281;47.658;9.166;2023-04-22T05:32:41;9.00;1.00
6496;DHT22;3281;47.658;9.166;2023-04-22T05:35:09;9.10;1.00
6496;DHT22;3281;47.658;9.166;2023-04-22T05:37:36;9.20;1.00
6496;DHT22;3281;47.658;9.166;2023-04-22T05:40:03;9.30;1.00
6496;DHT22;3281;47.658;9.166;2023-04-22T05:42:31;9.30;1.00
6496;DHT22;3281;47.658;9.166;2023-04-22T05:44:58;9.50;1.00
6496;DHT22;3281;47.658;9.166;2023-04-22T05:47:25;9.60;1.00
6496;DHT22;3281;47.658;9.166;2023-04-22T05:49:51;9.70;1.00
6496;DHT22;3281;47.658;9.166;2023-04-22T05:52:18;9.70;1.00
6496;DHT22;3281;47.658;9.166;2023-04-22T05:54:44;9.90;1.00
6496;DHT22;3281;47.658;9.166;2023-04-22T05:57:11;9.90;1.00
6496;DHT22;3281;47.658;9.166;2023-04-22T05:59:39;10.10;1.00
6496;DHT22;3281;47.658;9.166;2023-04-22T06:02:06;10.20;1.00
6496;DHT22;3281;47.658;9.166;2023-04-22T06:04:33;10.20;1.00
6496;DHT22;3281;47.658;9.166;2023-04-22T06:06:59;10.20;1.00
6496;DHT22;3281;47.658;9.166;2023-04-22T06:09:26;10.30;1.00
6496;DHT22;3281;47.658;9.166;2023-04-22T06:11:53;10.40;1.00
6496;DHT22;3281;47.658;9.166;2023-04-22T06:14:19;10.50;1.00
6496;DHT22;3281;47.658;9.166;2023-04-22T06:16:47;10.70;1.00
6496;DHT22;3281;47.658;9.166;2023-04-22T06:19:17;10.90;1.00
6496;DHT22;3281;47.658;9.166;2023-04-22T06:21:43;11.00;1.00
6496;DHT22;3281;47.658;9.166;2023-04-22T06:24:10;10.80;1.00
6496;DHT22;3281;47.658;9.166;2023-04-22T06:26:37;10.90;1.00
6496;DHT22;3281;47.658;9.166;2023-04-22T06:29:04;10.90;1.00
6496;DHT22;3281;47.658;9.166;2023-04-22T06:31:31;11.00;1.00
6496;DHT22;3281;47.658;9.166;2023-04-22T06:33:59;10.90;1.00
6496;DHT22;3281;47.658;9.166;2023-04-22T06:36:25;11.10;1.00
6496;DHT22;3281;47.658;9.166;2023-04-22T06:38:53;10.90;1.00
6496;DHT22;3281;47.658;9.166;2023-04-22T06:41:20;10.90;1.00
6496;DHT22;3281;47.658;9.166;2023-04-22T06:43:47;11.10;1.00
6496;DHT22;3281;47.658;9.166;2023-04-22T06:46:15;11.20;1.00
6496;DHT22;3281;47.658;9.166;2023-04-22T06:48:42;11.40;1.00
6496;DHT22;3281;47.658;9.166;2023-04-22T06:51:10;11.60;1.00
6496;DHT22;3281;47.658;9.166;2023-04-22T06:53:36;11.70;1.00
6496;DHT22;3281;47.658;9.166;2023-04-22T06:56:03;11.60;1.00
6496;DHT22;3281;47.658;9.166;2023-04-22T06:58:30;11.70;1.00
6496;DHT22;3281;47.658;9.166;2023-04-22T07:00:57;11.60;1.00
6496;DHT22;3281;47.658;9.166;2023-04-22T07:03:23;11.70;1.00
6496;DHT22;3281;47.658;9.166;2023-04-22T07:05:50;11.70;1.00
6496;DHT22;3281;47.658;9.166;2023-04-22T07:08:18;11.60;1.00
6496;DHT22;3281;47.658;9.166;2023-04-22T07:10:45;11.60;1.00
6496;DHT22;3281;47.658;9.166;2023-04-22T07:13:11;11.70;1.00
6496;DHT22;3281;47.658;9.166;2023-04-22T07:15:38;11.80;1.00
6496;DHT22;3281;47.658;9.166;2023-04-22T07:18:05;11.80;1.00
6496;DHT22;3281;47.658;9.166;2023-04-22T07:20:31;11.80;1.00
6496;DHT22;3281;47.658;9.166;2023-04-22T07:22:58;11.90;1.00
6496;DHT22;3281;47.658;9.166;2023-04-22T07:25:26;11.80;1.00
6496;DHT22;3281;47.658;9.166;2023-04-22T07:27:53;11.80;1.00
6496;DHT22;3281;47.658;9.166;2023-04-22T07:30:20;11.80;1.00
6496;DHT22;3281;47.658;9.166;2023-04-22T07:32:46;11.80;1.00
6496;DHT22;3281;47.658;9.166;2023-04-22T07:35:13;11.90;1.00
6496;DHT22;3281;47.658;9.166;2023-04-22T07:37:40;11.90;1.00
6496;DHT22;3281;47.658;9.166;2023-04-22T07:40:07;11.80;1.00
6496;DHT22;3281;47.658;9.166;2023-04-22T07:42:37;11.70;1.00
6496;DHT22;3281;47.658;9.166;2023-04-22T07:45:05;11.50;1.00
6496;DHT22;3281;47.658;9.166;2023-04-22T07:47:32;11.70;1.00
6496;DHT22;3281;47.658;9.166;2023-04-22T07:49:58;11.80;1.00
6496;DHT22;3281;47.658;9.166;2023-04-22T07:52:25;11.90;1.00
6496;DHT22;3281;47.658;9.166;2023-04-22T07:54:52;12.10;1.00
6496;DHT22;3281;47.658;9.166;2023-04-22T07:57:18;12.40;1.00
6496;DHT22;3281;47.658;9.166;2023-04-22T07:59:48;12.60;1.00
6496;DHT22;3281;47.658;9.166;2023-04-22T08:02:15;12.80;1.00
6496;DHT22;3281;47.658;9.166;2023-04-22T08:04:41;12.90;1.00
6496;DHT22;3281;47.658;9.166;2023-04-22T08:07:09;12.90;1.00
6496;DHT22;3281;47.658;9.166;2023-04-22T08:09:35;13.10;1.00
6496;DHT22;3281;47.658;9.166;2023-04-22T08:12:02;13.20;1.00
6496;DHT22;3281;47.658;9.166;2023-04-22T08:14:29;13.20;1.00
6496;DHT22;3281;47.658;9.166;2023-04-22T08:16:57;13.30;1.00
6496;DHT22;3281;47.658;9.166;2023-04-22T08:19:24;13.30;1.00
6496;DHT22;3281;47.658;9.166;2023-04-22T08:21:50;13.50;1.00
6496;DHT22;3281;47.658;9.166;2023-04-22T08:24:17;13.60;1.00
6496;DHT22;3281;47.658;9.166;2023-04-22T08:26:44;13.70;1.00
6496;DHT22;3281;47.658;9.166;2023-04-22T08:29:11;13.60;1.00
6496;DHT22;3281;47.658;9.166;2023-04-22T08:31:38;13.50;1.00
6496;DHT22;3281;47.658;9.166;2023-04-22T08:34:06;13.70;1.00
6496;DHT22;3281;47.658;9.166;2023-04-22T08:36:32;13.90;1.00
6496;DHT22;3281;47.658;9.166;2023-04-22T08:38:59;13.90;1.00
6496;DHT22;3281;47.658;9.166;2023-04-22T08:41:26;14.00;1.00
6496;DHT22;3281;47.658;9.166;2023-04-22T08:43:53;13.80;1.00
6496;DHT22;3281;47.658;9.166;2023-04-22T08:46:20;13.90;1.00
6496;DHT22;3281;47.658;9.166;2023-04-22T08:48:49;13.90;1.00
6496;DHT22;3281;47.658;9.166;2023-04-22T08:51:17;13.80;1.00
6496;DHT22;3281;47.658;9.166;2023-04-22T08:53:44;13.70;1.00
6496;DHT22;3281;47.658;9.166;2023-04-22T08:56:12;13.90;1.00
6496;DHT22;3281;47.658;9.166;2023-04-22T08:58:39;13.90;1.00
6496;DHT22;3281;47.658;9.166;2023-04-22T09:01:06;13.90;1.00
6496;DHT22;3281;47.658;9.166;2023-04-22T09:03:34;14.00;1.00
6496;DHT22;3281;47.658;9.166;2023-04-22T09:06:03;14.10;1.00
6496;DHT22;3281;47.658;9.166;2023-04-22T09:08:32;14.30;1.00
6496;DHT22;3281;47.658;9.166;2023-04-22T09:10:59;14.60;1.00
6496;DHT22;3281;47.658;9.166;2023-04-22T09:13:26;14.60;1.00
6496;DHT22;3281;47.658;9.166;2023-04-22T09:15:52;14.80;1.00
6496;DHT22;3281;47.658;9.166;2023-04-22T09:18:19;15.10;1.00
6496;DHT22;3281;47.658;9.166;2023-04-22T09:20:47;15.20;1.00
6496;DHT22;3281;47.658;9.166;2023-04-22T09:23:14;15.40;1.00
6496;DHT22;3281;47.658;9.166;2023-04-22T09:25:44;15.60;1.00
6496;DHT22;3281;47.658;9.166;2023-04-22T09:28:12;16.10;1.00
6496;DHT22;3281;47.658;9.166;2023-04-22T09:30:44;16.60;1.00
6496;DHT22;3281;47.658;9.166;2023-04-22T09:33:11;17.10;1.00
6496;DHT22;3281;47.658;9.166;2023-04-22T09:35:40;17.50;1.00
6496;DHT22;3281;47.658;9.166;2023-04-22T09:38:08;17.70;1.00
6496;DHT22;3281;47.658;9.166;2023-04-22T09:40:37;17.90;1.00
6496;DHT22;3281;47.658;9.166;2023-04-22T09:43:06;18.80;1.00
6496;DHT22;3281;47.658;9.166;2023-04-22T09:45:34;18.90;1.00
6496;DHT22;3281;47.658;9.166;2023-04-22T09:48:05;19.30;1.00
6496;DHT22;3281;47.658;9.166;2023-04-22T09:50:32;19.80;1.00
6496;DHT22;3281;47.658;9.166;2023-04-22T09:53:01;19.80;1.00
6496;DHT22;3281;47.658;9.166;2023-04-22T09:55:30;20.10;1.00
6496;DHT22;3281;47.658;9.166;2023-04-22T09:58:05;20.50;1.00
6496;DHT22;3281;47.658;9.166;2023-04-22T10:00:35;20.50;1.00
6496;DHT22;3281;47.658;9.166;2023-04-22T10:03:03;20.90;1.00
6496;DHT22;3281;47.658;9.166;2023-04-22T10:05:30;20.90;1.00
6496;DHT22;3281;47.658;9.166;2023-04-22T10:07:58;20.90;1.00
6496;DHT22;3281;47.658;9.166;2023-04-22T10:10:25;20.60;1.00
6496;DHT22;3281;47.658;9.166;2023-04-22T10:12:53;20.60;1.00
6496;DHT22;3281;47.658;9.166;2023-04-22T10:15:22;21.10;1.00
6496;DHT22;3281;47.658;9.166;2023-04-22T10:17:51;20.90;1.00
6496;DHT22;3281;47.658;9.166;2023-04-22T10:20:19;21.10;1.00
6496;DHT22;3281;47.658;9.166;2023-04-22T10:22:46;20.90;1.00
6496;DHT22;3281;47.658;9.166;2023-04-22T10:25:20;20.70;1.00
6496;DHT22;3281;47.658;9.166;2023-04-22T10:27:52;20.60;1.00
6496;DHT22;3281;47.658;9.166;2023-04-22T10:30:27;20.10;1.00
6496;DHT22;3281;47.658;9.166;2023-04-22T10:32:54;19.80;1.00
6496;DHT22;3281;47.658;9.166;2023-04-22T10:35:26;19.80;1.00
6496;DHT22;3281;47.658;9.166;2023-04-22T10:37:53;20.10;1.00
6496;DHT22;3281;47.658;9.166;2023-04-22T10:40:20;20.40;1.00
6496;DHT22;3281;47.658;9.166;2023-04-22T10:42:50;20.90;1.00
6496;DHT22;3281;47.658;9.166;2023-04-22T10:45:17;21.00;1.00
6496;DHT22;3281;47.658;9.166;2023-04-22T10:47:45;20.80;1.00
6496;DHT22;3281;47.658;9.166;2023-04-22T10:50:23;20.70;1.00
6496;DHT22;3281;47.658;9.166;2023-04-22T10:52:53;20.60;1.00
6496;DHT22;3281;47.658;9.166;2023-04-22T10:55:21;20.50;1.00
6496;DHT22;3281;47.658;9.166;2023-04-22T10:57:49;20.60;1.00
6496;DHT22;3281;47.658;9.166;2023-04-22T11:00:27;20.70;1.00
6496;DHT22;3281;47.658;9.166;2023-04-22T11:03:10;20.90;1.00
6496;DHT22;3281;47.658;9.166;2023-04-22T11:05:38;20.90;1.00
6496;DHT22;3281;47.658;9.166;2023-04-22T11:08:06;20.60;1.00
6496;DHT22;3281;47.658;9.166;2023-04-22T11:10:36;20.50;1.00
6496;DHT22;3281;47.658;9.166;2023-04-22T11:13:06;20.10;1.00
6496;DHT22;3281;47.658;9.166;2023-04-22T11:15:35;19.70;1.00
6496;DHT22;3281;47.658;9.166;2023-04-22T11:18:07;19.50;1.00
6496;DHT22;3281;47.658;9.166;2023-04-22T11:20:34;19.60;1.00
6496;DHT22;3281;47.658;9.166;2023-04-22T11:23:01;19.60;1.00
6496;DHT22;3281;47.658;9.166;2023-04-22T11:25:28;19.60;1.00
6496;DHT22;3281;47.658;9.166;2023-04-22T11:27:55;19.60;1.00
6496;DHT22;3281;47.658;9.166;2023-04-22T11:30:23;19.70;1.00
6496;DHT22;3281;47.658;9.166;2023-04-22T11:32:51;19.90;1.00
6496;DHT22;3281;47.658;9.166;2023-04-22T11:35:20;20.40;1.00
6496;DHT22;3281;47.658;9.166;2023-04-22T11:37:49;20.30;1.00
6496;DHT22;3281;47.658;9.166;2023-04-22T11:40:17;20.40;1.00
6496;DHT22;3281;47.658;9.166;2023-04-22T11:42:44;20.70;1.00
6496;DHT22;3281;47.658;9.166;2023-04-22T11:45:11;21.10;1.00
6496;DHT22;3281;47.658;9.166;2023-04-22T11:47:39;21.60;1.00
6496;DHT22;3281;47.658;9.166;2023-04-22T11:50:08;21.80;1.00
6496;DHT22;3281;47.658;9.166;2023-04-22T11:52:45;21.40;1.00
6496;DHT22;3281;47.658;9.166;2023-04-22T11:55:12;21.10;1.00
6496;DHT22;3281;47.658;9.166;2023-04-22T11:57:39;21.40;1.00
6496;DHT22;3281;47.658;9.166;2023-04-22T12:00:10;21.30;1.00
6496;DHT22;3281;47.658;9.166;2023-04-22T12:02:37;20.90;1.00
6496;DHT22;3281;47.658;9.166;2023-04-22T12:05:05;20.60;1.00
6496;DHT22;3281;47.658;9.166;2023-04-22T12:07:34;20.40;1.00
6496;DHT22;3281;47.658;9.166;2023-04-22T12:10:03;20.50;1.00
6496;DHT22;3281;47.658;9.166;2023-04-22T12:12:32;20.00;1.00
6496;DHT22;3281;47.658;9.166;2023-04-22T12:15:07;20.00;1.00
6496;DHT22;3281;47.658;9.166;2023-04-22T12:17:35;20.20;1.00
6496;DHT22;3281;47.658;9.166;2023-04-22T12:20:02;20.30;1.00
6496;DHT22;3281;47.658;9.166;2023-04-22T12:22:29;20.20;1.00
6496;DHT22;3281;47.658;9.166;2023-04-22T12:24:58;20.40;1.00
6496;DHT22;3281;47.658;9.166;2023-04-22T12:27:26;20.50;1.00
6496;DHT22;3281;47.658;9.166;2023-04-22T12:29:54;20.30;1.00
6496;DHT22;3281;47.658;9.166;2023-04-22T12:32:22;20.40;1.00
6496;DHT22;3281;47.658;9.166;2023-04-22T12:34:49;20.70;1.00
6496;DHT22;3281;47.658;9.166;2023-04-22T12:37:17;20.70;1.00
6496;DHT22;3281;47.658;9.166;2023-04-22T12:39:44;20.80;1.00
6496;DHT22;3281;47.658;9.166;2023-04-22T12:42:11;20.70;1.00
6496;DHT22;3281;47.658;9.166;2023-04-22T12:44:39;20.60;1.00
6496;DHT22;3281;47.658;9.166;2023-04-22T12:47:06;20.60;1.00
6496;DHT22;3281;47.658;9.166;2023-04-22T12:49:34;20.60;1.00
6496;DHT22;3281;47.658;9.166;2023-04-22T12:52:02;20.90;1.00
6496;DHT22;3281;47.658;9.166;2023-04-22T12:54:29;20.70;1.00
6496;DHT22;3281;47.658;9.166;2023-04-22T12:56:56;20.50;1.00
6496;DHT22;3281;47.658;9.166;2023-04-22T12:59:23;20.80;1.00
6496;DHT22;3281;47.658;9.166;2023-04-22T13:01:51;20.60;1.00
6496;DHT22;3281;47.658;9.166;2023-04-22T13:04:19;20.70;1.00
6496;DHT22;3281;47.658;9.166;2023-04-22T13:06:46;20.60;1.00
6496;DHT22;3281;47.658;9.166;2023-04-22T13:09:14;20.50;1.00
6496;DHT22;3281;47.658;9.166;2023-04-22T13:11:41;20.50;1.00
6496;DHT22;3281;47.658;9.166;2023-04-22T13:14:08;20.90;1.00
6496;DHT22;3281;47.658;9.166;2023-04-22T13:16:35;21.00;1.00
6496;DHT22;3281;47.658;9.166;2023-04-22T13:19:03;20.90;1.00
6496;DHT22;3281;47.658;9.166;2023-04-22T13:21:30;20.70;1.00
6496;DHT22;3281;47.658;9.166;2023-04-22T13:23:56;20.60;1.00
6496;DHT22;3281;47.658;9.166;2023-04-22T13:26:23;20.30;1.00
6496;DHT22;3281;47.658;9.166;2023-04-22T13:28:50;20.30;1.00
6496;DHT22;3281;47.658;9.166;2023-04-22T13:31:17;20.30;1.00
6496;DHT22;3281;47.658;9.166;2023-04-22T13:33:43;20.50;1.00
6496;DHT22;3281;47.658;9.166;2023-04-22T13:36:13;20.70;1.00
6496;DHT22;3281;47.658;9.166;2023-04-22T13:38:39;20.80;1.00
6496;DHT22;3281;47.658;9.166;2023-04-22T13:41:06;20.90;1.00
6496;DHT22;3281;47.658;9.166;2023-04-22T13:43:33;20.90;1.00
6496;DHT22;3281;47.658;9.166;2023-04-22T13:45:59;20.80;1.00
6496;DHT22;3281;47.658;9.166;2023-04-22T13:48:26;20.80;1.00
6496;DHT22;3281;47.658;9.166;2023-04-22T13:50:54;20.90;1.00
6496;DHT22;3281;47.658;9.166;2023-04-22T13:53:22;20.70;1.00
6496;DHT22;3281;47.658;9.166;2023-04-22T13:55:49;20.70;1.00
6496;DHT22;3281;47.658;9.166;2023-04-22T13:58:15;20.60;1.00
6496;DHT22;3281;47.658;9.166;2023-04-22T14:00:42;20.50;1.00
6496;DHT22;3281;47.658;9.166;2023-04-22T14:03:09;20.40;1.00
6496;DHT22;3281;47.658;9.166;2023-04-22T14:05:36;20.40;1.00
6496;DHT22;3281;47.658;9.166;2023-04-22T14:08:02;20.50;1.00
6496;DHT22;3281;47.658;9.166;2023-04-22T14:10:30;20.70;1.00
6496;DHT22;3281;47.658;9.166;2023-04-22T14:12:57;20.80;1.00
6496;DHT22;3281;47.658;9.166;2023-04-22T14:15:24;20.80;1.00
6496;DHT22;3281;47.658;9.166;2023-04-22T14:17:51;20.70;1.00
6496;DHT22;3281;47.658;9.166;2023-04-22T14:20:18;20.50;1.00
6496;DHT22;3281;47.658;9.166;2023-04-22T14:22:45;20.30;1.00
6496;DHT22;3281;47.658;9.166;2023-04-22T14:25:12;20.10;1.00
6496;DHT22;3281;47.658;9.166;2023-04-22T14:27:40;20.10;1.00
6496;DHT22;3281;47.658;9.166;2023-04-22T14:30:08;19.90;1.00
6496;DHT22;3281;47.658;9.166;2023-04-22T14:32:35;19.80;1.00
6496;DHT22;3281;47.658;9.166;2023-04-22T14:35:01;19.70;1.00
6496;DHT22;3281;47.658;9.166;2023-04-22T14:37:28;19.60;1.00
6496;DHT22;3281;47.658;9.166;2023-04-22T14:39:56;19.50;1.00
6496;DHT22;3281;47.658;9.166;2023-04-22T14:42:23;19.30;1.00
6496;DHT22;3281;47.658;9.166;2023-04-22T14:44:51;19.20;1.00
6496;DHT22;3281;47.658;9.166;2023-04-22T14:47:18;19.20;1.00
6496;DHT22;3281;47.658;9.166;2023-04-22T14:49:44;19.10;1.00
6496;DHT22;3281;47.658;9.166;2023-04-22T14:52:11;19.10;1.00
6496;DHT22;3281;47.658;9.166;2023-04-22T14:54:38;19.00;1.00
6496;DHT22;3281;47.658;9.166;2023-04-22T14:57:05;18.90;1.00
6496;DHT22;3281;47.658;9.166;2023-04-22T14:59:31;18.80;1.00
6496;DHT22;3281;47.658;9.166;2023-04-22T15:01:59;18.70;1.00
6496;DHT22;3281;47.658;9.166;2023-04-22T15:04:26;18.70;1.00
6496;DHT22;3281;47.658;9.166;2023-04-22T15:06:53;18.80;1.00
6496;DHT22;3281;47.658;9.166;2023-04-22T15:09:22;18.80;1.00
6496;DHT22;3281;47.658;9.166;2023-04-22T15:11:48;18.70;1.00
6496;DHT22;3281;47.658;9.166;2023-04-22T15:14:15;18.70;1.00
6496;DHT22;3281;47.658;9.166;2023-04-22T15:16:42;18.60;1.00
6496;DHT22;3281;47.658;9.166;2023-04-22T15:19:10;18.50;1.00
6496;DHT22;3281;47.658;9.166;2023-04-22T15:21:37;18.40;1.00
6496;DHT22;3281;47.658;9.166;2023-04-22T15:24:04;18.40;1.00
6496;DHT22;3281;47.658;9.166;2023-04-22T15:26:30;18.30;1.00
6496;DHT22;3281;47.658;9.166;2023-04-22T15:28:59;18.20;1.00
6496;DHT22;3281;47.658;9.166;2023-04-22T15:31:25;18.10;1.00
6496;DHT22;3281;47.658;9.166;2023-04-22T15:33:52;18.00;1.00
6496;DHT22;3281;47.658;9.166;2023-04-22T15:36:20;17.90;1.00
6496;DHT22;3281;47.658;9.166;2023-04-22T15:38:47;17.80;1.00
6496;DHT22;3281;47.658;9.166;2023-04-22T15:41:18;17.70;1.00
6496;DHT22;3281;47.658;9.166;2023-04-22T15:43:45;17.60;1.00
6496;DHT22;3281;47.658;9.166;2023-04-22T15:46:12;17.50;1.00
6496;DHT22;3281;47.658;9.166;2023-04-22T15:48:39;17.40;1.00
6496;DHT22;3281;47.658;9.166;2023-04-22T15:51:08;17.40;1.00
6496;DHT22;3281;47.658;9.166;2023-04-22T15:53:37;17.30;1.00
6496;DHT22;3281;47.658;9.166;2023-04-22T15:56:04;17.30;1.00
6496;DHT22;3281;47.658;9.166;2023-04-22T15:58:31;17.20;1.00
6496;DHT22;3281;47.658;9.166;2023-04-22T16:00:58;17.20;1.00
6496;DHT22;3281;47.658;9.166;2023-04-22T16:03:24;17.20;1.00
6496;DHT22;3281;47.658;9.166;2023-04-22T16:05:51;17.10;1.00
6496;DHT22;3281;47.658;9.166;2023-04-22T16:08:18;17.10;1.00
6496;DHT22;3281;47.658;9.166;2023-04-22T16:10:46;17.00;1.00
6496;DHT22;3281;47.658;9.166;2023-04-22T16:13:13;17.00;1.00
6496;DHT22;3281;47.658;9.166;2023-04-22T16:15:40;16.90;1.00
6496;DHT22;3281;47.658;9.166;2023-04-22T16:18:07;16.90;1.00
6496;DHT22;3281;47.658;9.166;2023-04-22T16:20:34;16.80;1.00
6496;DHT22;3281;47.658;9.166;2023-04-22T16:23:00;16.80;1.00